createdAt,value
2023-03-12T00:01:43.819Z,10.41
2023-03-12T00:04:10.844Z,10.37
2023-03-12T00:06:37.853Z,9.95
2023-03-12T00:09:04.967Z,10.13
2023-03-12T00:11:32.180Z,10.27
2023-03-12T00:14:02.305Z,9.63
2023-03-12T00:16:29.806Z,10.09
2023-03-12T00:18:57.003Z,10.15
2023-03-12T00:21:24.504Z,10.35
2023-03-12T00:23:52.629Z,10.35
2023-03-12T00:26:20.764Z,10.19
2023-03-12T00:29:08.384Z,10.12
2023-03-12T00:32:09.384Z,10.08
2023-03-12T00:35:10.387Z,10.05
2023-03-12T00:37:57.268Z,9.89
2023-03-12T00:40:24.210Z,9.80
2023-03-12T00:43:11.387Z,9.49
2023-03-12T00:46:12.434Z,9.87
2023-03-12T00:48:53.293Z,9.88
2023-03-12T00:51:20.496Z,9.89
2023-03-12T00:53:47.475Z,9.74
2023-03-12T00:56:14.498Z,9.44
2023-03-12T00:58:42.900Z,9.46
2023-03-12T01:01:10.613Z,9.51
2023-03-12T01:03:37.718Z,9.18
2023-03-12T01:06:05.547Z,9.49
2023-03-12T01:08:33.257Z,9.60
2023-03-12T01:11:00.618Z,9.39
2023-03-12T01:13:27.838Z,9.48
2023-03-12T01:15:54.899Z,9.51
2023-03-12T01:18:22.014Z,9.52
2023-03-12T01:20:49.736Z,9.33
2023-03-12T01:23:16.688Z,9.47
2023-03-12T01:25:43.683Z,9.21
2023-03-12T01:28:10.913Z,9.41
2023-03-12T01:30:38.066Z,9.35
2023-03-12T01:33:25.409Z,9.37
2023-03-12T01:36:15.412Z,9.45
2023-03-12T01:38:43.877Z,9.37
2023-03-12T01:41:10.845Z,9.52
2023-03-12T01:43:58.429Z,9.46
2023-03-12T01:46:59.434Z,9.28
2023-03-12T01:49:40.007Z,9.19
2023-03-12T01:52:10.795Z,9.36
2023-03-12T01:54:50.707Z,9.34
2023-03-12T01:57:55.279Z,9.21
2023-03-12T02:00:25.865Z,9.38
2023-03-12T02:03:20.446Z,9.43
2023-03-12T02:06:08.378Z,9.42
2023-03-12T02:08:42.510Z,9.12
2023-03-12T02:11:10.758Z,8.85
2023-03-12T02:13:39.901Z,9.01
2023-03-12T02:16:07.343Z,8.89
2023-03-12T02:18:35.463Z,8.52
2023-03-12T02:21:11.937Z,8.58
2023-03-12T02:24:21.628Z,8.86
2023-03-12T02:26:49.795Z,8.55
2023-03-12T02:29:17.506Z,8.46
2023-03-12T02:32:07.529Z,8.25
2023-03-12T02:34:48.193Z,8.02
2023-03-12T02:37:15.267Z,8.22
2023-03-12T02:39:46.659Z,8.32
2023-03-12T02:42:34.473Z,8.20
2023-03-12T02:45:36.475Z,8.22
2023-03-12T02:48:17.161Z,8.65
2023-03-12T02:50:44.239Z,8.17
2023-03-12T02:53:11.334Z,8.48
2023-03-12T02:55:38.305Z,7.73
2023-03-12T02:58:05.384Z,7.36
2023-03-12T03:00:32.465Z,7.53
2023-03-12T03:03:01.469Z,8.51
2023-03-12T03:05:28.582Z,8.27
2023-03-12T03:07:55.622Z,7.89
2023-03-12T03:10:22.629Z,8.22
2023-03-12T03:12:50.262Z,8.44
2023-03-12T03:15:17.716Z,8.07
2023-03-12T03:17:45.080Z,7.70
2023-03-12T03:20:12.325Z,8.24
2023-03-12T03:22:39.587Z,8.03
2023-03-12T03:25:09.560Z,8.11
2023-03-12T03:27:36.803Z,7.16
2023-03-12T03:30:04.672Z,8.10
2023-03-12T03:32:55.463Z,7.79
2023-03-12T03:35:36.296Z,7.64
2023-03-12T03:38:04.337Z,7.86
2023-03-12T03:40:31.467Z,7.92
2023-03-12T03:43:18.488Z,8.07
2023-03-12T03:46:19.577Z,7.96
2023-03-12T03:49:06.387Z,7.87
2023-03-12T03:51:34.197Z,7.35
2023-03-12T03:54:26.495Z,7.98
2023-03-12T03:57:27.587Z,8.04
2023-03-12T04:00:10.006Z,7.84
2023-03-12T04:02:44.860Z,7.79
2023-03-12T04:05:16.075Z,7.58
2023-03-12T04:07:43.624Z,7.42
2023-03-12T04:10:12.181Z,7.82
2023-03-12T04:12:39.357Z,7.73
2023-03-12T04:15:06.857Z,7.49
2023-03-12T04:17:34.148Z,7.78
2023-03-12T04:20:02.517Z,7.67
2023-03-12T04:22:29.768Z,7.75
2023-03-12T04:24:56.865Z,7.87
2023-03-12T04:27:24.566Z,7.83
2023-03-12T04:29:52.225Z,7.70
2023-03-12T04:32:19.882Z,7.49
2023-03-12T04:34:47.485Z,7.47
2023-03-12T04:37:16.753Z,7.25
2023-03-12T04:39:45.491Z,7.68
2023-03-12T04:42:33.546Z,7.42
2023-03-12T04:45:34.585Z,7.43
2023-03-12T04:48:15.159Z,7.38
2023-03-12T04:50:42.645Z,7.26
2023-03-12T04:53:09.788Z,7.42
2023-03-12T04:55:37.052Z,7.42
2023-03-12T04:58:04.270Z,7.13
2023-03-12T05:00:53.556Z,7.45
2023-03-12T05:03:54.585Z,7.31
2023-03-12T05:06:35.841Z,7.43
2023-03-12T05:09:04.028Z,7.17
2023-03-12T05:11:31.416Z,7.38
2023-03-12T05:13:58.746Z,7.21
2023-03-12T05:16:25.916Z,7.10
2023-03-12T05:18:53.154Z,6.21
2023-03-12T05:21:22.167Z,6.75
2023-03-12T05:23:52.665Z,6.90
2023-03-12T05:26:23.326Z,7.27
2023-03-12T05:28:52.437Z,7.13
2023-03-12T05:31:21.266Z,7.07
2023-03-12T05:33:52.703Z,7.12
2023-03-12T05:36:21.270Z,7.30
2023-03-12T05:38:48.949Z,7.29
2023-03-12T05:41:34.549Z,7.05
2023-03-12T05:44:42.577Z,7.06
2023-03-12T05:47:45.558Z,7.26
2023-03-12T05:50:16.893Z,7.15
2023-03-12T05:53:04.553Z,7.06
2023-03-12T05:55:45.175Z,6.99
2023-03-12T05:58:32.591Z,6.93
2023-03-12T06:01:36.568Z,6.94
2023-03-12T06:04:38.569Z,7.17
2023-03-12T06:07:19.183Z,7.20
2023-03-12T06:09:46.085Z,6.86
2023-03-12T06:12:14.091Z,7.35
2023-03-12T06:14:41.035Z,7.28
2023-03-12T06:17:08.476Z,7.30
2023-03-12T06:19:35.578Z,7.97
2023-03-12T06:22:03.134Z,7.99
2023-03-12T06:24:30.164Z,8.51
2023-03-12T06:27:03.497Z,8.51
2023-03-12T06:29:30.422Z,8.28
2023-03-12T06:31:57.462Z,8.32
2023-03-12T06:34:24.905Z,8.92
2023-03-12T06:36:51.982Z,8.44
2023-03-12T06:39:18.884Z,8.42
2023-03-12T06:42:05.579Z,8.11
2023-03-12T06:45:06.589Z,10.01
2023-03-12T06:47:47.788Z,10.15
2023-03-12T06:50:14.726Z,10.99
2023-03-12T06:52:41.937Z,10.51
2023-03-12T06:55:09.059Z,10.91
2023-03-12T06:57:56.580Z,9.82
2023-03-12T07:00:51.859Z,10.83
2023-03-12T07:03:18.999Z,11.61
2023-03-12T07:05:47.206Z,10.35
2023-03-12T07:08:14.824Z,10.73
2023-03-12T07:10:41.802Z,10.84
2023-03-12T07:13:09.215Z,11.47
2023-03-12T07:15:36.368Z,11.66
2023-03-12T07:18:08.700Z,11.26
2023-03-12T07:20:43.687Z,11.62
2023-03-12T07:23:11.315Z,11.09
2023-03-12T07:25:39.983Z,11.18
2023-03-12T07:28:08.051Z,11.08
2023-03-12T07:30:35.732Z,11.04
2023-03-12T07:33:04.013Z,10.62
2023-03-12T07:35:31.686Z,10.32
2023-03-12T07:37:59.614Z,11.24
2023-03-12T07:40:26.834Z,10.86
2023-03-12T07:43:12.327Z,11.85
2023-03-12T07:46:05.612Z,11.47
2023-03-12T07:48:46.284Z,11.41
2023-03-12T07:51:13.253Z,11.59
2023-03-12T07:53:40.220Z,11.65
2023-03-12T07:56:07.839Z,12.42
2023-03-12T07:58:55.284Z,12.68
2023-03-12T08:01:56.714Z,12.91
2023-03-12T08:04:37.416Z,13.32
2023-03-12T08:07:05.844Z,12.05
2023-03-12T08:09:35.156Z,12.35
2023-03-12T08:12:02.229Z,12.45
2023-03-12T08:14:31.813Z,12.91
2023-03-12T08:16:59.368Z,13.49
2023-03-12T08:19:27.074Z,12.28
2023-03-12T08:21:55.189Z,12.32
2023-03-12T08:24:22.845Z,12.95
2023-03-12T08:27:09.669Z,13.16
2023-03-12T08:29:50.326Z,12.79
2023-03-12T08:32:17.401Z,13.01
2023-03-12T08:34:44.423Z,13.95
2023-03-12T08:37:11.472Z,13.97
2023-03-12T08:39:38.532Z,13.93
2023-03-12T08:42:25.664Z,13.87
2023-03-12T08:45:27.734Z,14.46
2023-03-12T08:48:08.267Z,14.65
2023-03-12T08:50:35.190Z,14.22
2023-03-12T08:53:03.114Z,12.62
2023-03-12T08:55:30.143Z,12.46
2023-03-12T08:58:17.676Z,12.75
2023-03-12T09:00:58.506Z,12.94
2023-03-12T09:03:26.378Z,12.51
2023-03-12T09:06:13.456Z,13.51
2023-03-12T09:08:41.305Z,13.58
2023-03-12T09:11:13.013Z,14.17
2023-03-12T09:14:03.842Z,14.56
2023-03-12T09:16:29.831Z,14.45
2023-03-12T09:18:57.054Z,14.41
2023-03-12T09:21:23.940Z,14.11
2023-03-12T09:23:51.064Z,14.31
2023-03-12T09:26:18.105Z,13.13
2023-03-12T09:28:45.224Z,12.77
2023-03-12T09:31:12.630Z,13.61
2023-03-12T09:33:39.554Z,14.59
2023-03-12T09:36:07.178Z,13.23
2023-03-12T09:38:35.574Z,13.58
2023-03-12T09:41:05.434Z,14.44
2023-03-12T09:43:45.683Z,15.15
2023-03-12T09:46:50.691Z,13.81
2023-03-12T09:49:49.443Z,14.32
2023-03-12T09:52:39.900Z,15.19
2023-03-12T09:55:19.851Z,14.41
2023-03-12T09:58:07.700Z,14.93
2023-03-12T10:01:15.694Z,13.90
2023-03-12T10:04:13.161Z,14.15
2023-03-12T10:07:11.534Z,14.66
2023-03-12T10:10:03.856Z,14.52
2023-03-12T10:12:54.088Z,14.92
2023-03-12T10:15:47.427Z,15.30
2023-03-12T10:18:58.989Z,16.12
2023-03-12T10:21:50.956Z,15.61
2023-03-12T10:24:36.591Z,15.03
2023-03-12T10:27:28.779Z,15.15
2023-03-12T10:30:19.380Z,14.41
2023-03-12T10:33:10.585Z,15.45
2023-03-12T10:35:40.674Z,15.37
2023-03-12T10:38:18.053Z,15.82
2023-03-12T10:40:45.208Z,16.14
2023-03-12T10:43:32.781Z,16.43
2023-03-12T10:46:58.708Z,15.89
2023-03-12T10:49:39.403Z,14.75
2023-03-12T10:52:28.201Z,16.37
2023-03-12T10:54:55.306Z,16.65
2023-03-12T10:57:53.755Z,17.52
2023-03-12T11:00:34.473Z,16.17
2023-03-12T11:03:06.451Z,17.05
2023-03-12T11:05:36.046Z,17.00
2023-03-12T11:08:04.420Z,16.14
2023-03-12T11:10:46.768Z,15.55
2023-03-12T11:13:22.831Z,15.93
2023-03-12T11:15:51.467Z,15.36
2023-03-12T11:18:20.476Z,16.17
2023-03-12T11:20:50.452Z,15.81
2023-03-12T11:23:22.340Z,15.01
2023-03-12T11:26:16.157Z,15.49
2023-03-12T11:28:47.139Z,14.56
2023-03-12T11:31:28.253Z,15.56
2023-03-12T11:34:05.983Z,16.15
2023-03-12T11:36:49.580Z,16.83
2023-03-12T11:39:28.287Z,16.26
2023-03-12T11:42:24.765Z,16.88
2023-03-12T11:45:39.752Z,15.93
2023-03-12T11:48:44.958Z,16.77
2023-03-12T11:51:19.854Z,16.97
2023-03-12T11:53:52.857Z,16.36
2023-03-12T11:56:23.127Z,17.12
2023-03-12T11:59:16.768Z,15.56
2023-03-12T12:02:11.679Z,16.18
2023-03-12T12:05:16.780Z,16.44
2023-03-12T12:08:32.869Z,16.16
2023-03-12T12:11:29.355Z,16.01
2023-03-12T12:14:15.509Z,15.99
2023-03-12T12:16:54.704Z,16.84
2023-03-12T12:19:24.661Z,16.47
2023-03-12T12:22:00.952Z,16.13
2023-03-12T12:24:49.600Z,16.22
2023-03-12T12:27:28.741Z,16.64
2023-03-12T12:29:55.650Z,16.74
2023-03-12T12:32:37.716Z,16.85
2023-03-12T12:35:36.821Z,15.72
2023-03-12T12:38:31.422Z,15.43
2023-03-12T12:41:10.039Z,16.14
2023-03-12T12:44:03.862Z,15.67
2023-03-12T12:47:11.824Z,16.29
2023-03-12T12:50:00.115Z,16.03
2023-03-12T12:52:27.645Z,16.38
2023-03-12T12:54:54.538Z,16.55
2023-03-12T12:58:05.807Z,16.41
2023-03-12T13:00:51.375Z,16.25
2023-03-12T13:03:40.895Z,16.36
2023-03-12T13:06:21.464Z,15.85
2023-03-12T13:08:48.339Z,16.06
2023-03-12T13:11:20.107Z,16.35
2023-03-12T13:14:03.642Z,16.49
2023-03-12T13:16:39.617Z,16.35
2023-03-12T13:19:15.903Z,16.18
2023-03-12T13:22:04.441Z,16.17
2023-03-12T13:25:05.301Z,16.33
2023-03-12T13:27:38.714Z,16.23
2023-03-12T13:30:33.463Z,16.27
2023-03-12T13:33:03.237Z,16.03
2023-03-12T13:35:38.073Z,15.78
2023-03-12T13:38:12.323Z,16.35
2023-03-12T13:40:54.750Z,15.98
2023-03-12T13:43:57.994Z,15.98
2023-03-12T13:46:52.850Z,15.71
2023-03-12T13:49:51.694Z,15.84
2023-03-12T13:52:32.661Z,15.89
2023-03-12T13:55:25.150Z,15.88
2023-03-12T13:58:30.865Z,16.27
2023-03-12T14:01:19.659Z,15.83
2023-03-12T14:03:58.086Z,15.98
2023-03-12T14:06:30.342Z,16.22
2023-03-12T14:09:06.398Z,16.24
2023-03-12T14:11:43.974Z,16.17
2023-03-12T14:14:34.115Z,16.33
2023-03-12T14:17:04.034Z,16.39
2023-03-12T14:19:36.553Z,15.88
2023-03-12T14:22:06.623Z,16.11
2023-03-12T14:24:38.903Z,15.73
2023-03-12T14:27:12.823Z,15.60
2023-03-12T14:29:46.860Z,15.13
2023-03-12T14:32:24.298Z,15.80
2023-03-12T14:35:03.228Z,16.03
2023-03-12T14:37:37.142Z,16.18
2023-03-12T14:41:01.882Z,16.27
2023-03-12T14:44:05.906Z,15.72
2023-03-12T14:47:32.884Z,15.91
2023-03-12T14:50:40.991Z,16.06
2023-03-12T14:53:20.265Z,15.76
2023-03-12T14:55:47.179Z,15.70
2023-03-12T14:58:33.918Z,16.04
2023-03-12T15:01:37.965Z,16.19
2023-03-12T15:04:22.368Z,16.05
2023-03-12T15:06:54.215Z,15.73
2023-03-12T15:09:27.967Z,15.70
2023-03-12T15:12:01.679Z,15.84
2023-03-12T15:14:34.526Z,16.11
2023-03-12T15:17:05.081Z,16.23
2023-03-12T15:19:36.668Z,16.04
2023-03-12T15:22:04.640Z,15.81
2023-03-12T15:24:39.049Z,15.99
2023-03-12T15:27:31.786Z,15.92
2023-03-12T15:30:01.522Z,15.94
2023-03-12T15:32:30.702Z,15.53
2023-03-12T15:34:59.220Z,15.04
2023-03-12T15:37:49.612Z,15.79
2023-03-12T15:40:28.114Z,15.34
2023-03-12T15:43:15.985Z,15.47
2023-03-12T15:46:20.003Z,15.70
2023-03-12T15:49:36.955Z,15.79
2023-03-12T15:52:22.118Z,16.03
2023-03-12T15:55:14.892Z,15.73
2023-03-12T15:58:02.931Z,15.98
2023-03-12T16:00:45.213Z,16.04
2023-03-12T16:03:30.255Z,15.82
2023-03-12T16:05:57.961Z,15.61
2023-03-12T16:08:49.929Z,15.06
2023-03-12T16:11:50.929Z,15.43
2023-03-12T16:14:51.935Z,15.55
2023-03-12T16:17:52.951Z,15.03
2023-03-12T16:20:33.632Z,15.52
2023-03-12T16:23:00.639Z,15.51
2023-03-12T16:25:27.608Z,15.07
2023-03-12T16:27:58.140Z,15.19
2023-03-12T16:30:29.921Z,15.35
2023-03-12T16:32:58.386Z,14.97
2023-03-12T16:35:27.919Z,15.28
2023-03-12T16:37:55.793Z,15.28
2023-03-12T16:40:32.856Z,15.19
2023-03-12T16:43:25.937Z,15.31
2023-03-12T16:46:33.012Z,15.00
2023-03-12T16:49:33.950Z,15.16
2023-03-12T16:52:23.285Z,14.94
2023-03-12T16:54:51.384Z,14.84
2023-03-12T16:57:46.059Z,14.79
2023-03-12T17:00:30.430Z,14.18
2023-03-12T17:02:59.105Z,14.62
2023-03-12T17:05:28.005Z,14.60
2023-03-12T17:07:55.769Z,14.64
2023-03-12T17:10:23.355Z,14.48
2023-03-12T17:12:50.891Z,13.73
2023-03-12T17:15:27.849Z,14.08
2023-03-12T17:18:15.981Z,14.22
2023-03-12T17:21:16.990Z,13.56
2023-03-12T17:23:57.568Z,13.98
2023-03-12T17:26:45.006Z,13.94
2023-03-12T17:29:25.589Z,13.79
2023-03-12T17:31:52.724Z,13.63
2023-03-12T17:34:19.836Z,13.43
2023-03-12T17:36:47.025Z,13.56
2023-03-12T17:39:33.987Z,13.19
2023-03-12T17:42:34.996Z,13.24
2023-03-12T17:45:35.985Z,13.40
2023-03-12T17:48:30.131Z,12.98
2023-03-12T17:51:11.142Z,13.33
2023-03-12T17:53:42.185Z,13.26
2023-03-12T17:56:12.694Z,13.12
2023-03-12T17:58:39.805Z,12.90
2023-03-12T18:01:07.107Z,12.93
2023-03-12T18:03:54.002Z,12.93
2023-03-12T18:06:34.578Z,12.88
2023-03-12T18:09:01.650Z,13.06
2023-03-12T18:11:28.671Z,13.04
2023-03-12T18:13:55.633Z,12.93
2023-03-12T18:16:22.630Z,12.51
2023-03-12T18:18:52.186Z,12.65
2023-03-12T18:21:19.928Z,12.34
2023-03-12T18:23:46.956Z,11.75
2023-03-12T18:26:34.017Z,12.37
2023-03-12T18:29:35.058Z,12.41
2023-03-12T18:32:28.183Z,12.51
2023-03-12T18:34:55.302Z,12.30
2023-03-12T18:37:23.114Z,11.46
2023-03-12T18:40:12.039Z,12.23
2023-03-12T18:43:13.034Z,12.10
2023-03-12T18:46:15.106Z,11.70
2023-03-12T18:48:55.768Z,12.11
2023-03-12T18:51:22.935Z,12.06
2023-03-12T18:53:50.014Z,12.19
2023-03-12T18:56:17.029Z,11.87
2023-03-12T18:58:44.053Z,11.38
2023-03-12T19:01:13.106Z,11.70
2023-03-12T19:03:40.372Z,11.22
2023-03-12T19:06:12.945Z,11.05
2023-03-12T19:08:40.950Z,12.08
2023-03-12T19:11:14.008Z,11.77
2023-03-12T19:13:41.379Z,11.75
2023-03-12T19:16:10.589Z,12.03
2023-03-12T19:18:38.834Z,11.69
2023-03-12T19:21:09.512Z,11.63
2023-03-12T19:23:36.770Z,11.88
2023-03-12T19:26:04.497Z,11.88
2023-03-12T19:28:52.067Z,11.86
2023-03-12T19:31:46.309Z,11.69
2023-03-12T19:34:26.842Z,11.91
2023-03-12T19:36:54.279Z,11.12
2023-03-12T19:39:21.925Z,10.94
2023-03-12T19:42:09.088Z,11.73
2023-03-12T19:45:10.080Z,11.59
2023-03-12T19:48:11.057Z,11.64
2023-03-12T19:51:10.957Z,11.72
2023-03-12T19:53:38.679Z,11.79
2023-03-12T19:56:06.312Z,10.84
2023-03-12T19:58:33.723Z,11.67
2023-03-12T20:01:01.992Z,11.80
2023-03-12T20:03:49.121Z,11.45
2023-03-12T20:06:29.696Z,11.26
2023-03-12T20:08:56.806Z,11.14
2023-03-12T20:11:23.874Z,11.37
2023-03-12T20:13:50.942Z,10.61
2023-03-12T20:16:19.095Z,10.82
2023-03-12T20:18:46.276Z,10.17
2023-03-12T20:21:13.531Z,10.54
2023-03-12T20:23:40.553Z,10.20
2023-03-12T20:26:28.117Z,11.14
2023-03-12T20:29:15.511Z,11.27
2023-03-12T20:31:43.320Z,11.35
2023-03-12T20:34:10.301Z,11.38
2023-03-12T20:36:37.284Z,11.23
2023-03-12T20:39:04.799Z,11.12
2023-03-12T20:41:52.095Z,11.02
2023-03-12T20:44:53.101Z,10.90
2023-03-12T20:47:54.109Z,10.49
2023-03-12T20:50:55.096Z,10.31
2023-03-12T20:53:33.230Z,10.64
2023-03-12T20:56:00.216Z,10.65
2023-03-12T20:58:27.183Z,10.67
2023-03-12T21:00:54.672Z,10.49
2023-03-12T21:03:22.783Z,9.86
2023-03-12T21:05:57.291Z,10.53
2023-03-12T21:08:25.504Z,10.62
2023-03-12T21:10:53.241Z,10.18
2023-03-12T21:13:22.504Z,10.57
2023-03-12T21:15:50.574Z,10.51
2023-03-12T21:18:18.439Z,10.46
2023-03-12T21:20:45.675Z,10.38
2023-03-12T21:23:12.759Z,10.11
2023-03-12T21:25:41.125Z,10.45
2023-03-12T21:28:10.044Z,10.43
2023-03-12T21:30:37.710Z,10.03
2023-03-12T21:33:04.826Z,10.27
2023-03-12T21:35:32.290Z,9.39
2023-03-12T21:37:59.506Z,10.21
2023-03-12T21:40:26.500Z,10.08
2023-03-12T21:43:14.130Z,9.90
2023-03-12T21:46:23.244Z,10.24
2023-03-12T21:49:24.178Z,9.93
2023-03-12T21:52:05.143Z,10.00
2023-03-12T21:54:33.878Z,9.97
2023-03-12T21:57:04.741Z,10.06
2023-03-12T21:59:32.203Z,10.16
2023-03-12T22:01:59.598Z,9.90
2023-03-12T22:04:27.862Z,9.74
2023-03-12T22:06:56.665Z,9.24
2023-03-12T22:09:44.140Z,9.39
2023-03-12T22:12:24.686Z,9.58
2023-03-12T22:14:51.693Z,9.40
2023-03-12T22:17:18.731Z,9.56
2023-03-12T22:19:45.766Z,9.67
2023-03-12T22:22:12.832Z,9.33
2023-03-12T22:24:39.892Z,9.52
2023-03-12T22:27:07.621Z,9.36
2023-03-12T22:29:34.864Z,9.26
2023-03-12T22:32:02.156Z,9.56
2023-03-12T22:34:29.900Z,9.53
2023-03-12T22:36:57.180Z,9.49
2023-03-12T22:39:24.204Z,9.08
2023-03-12T22:42:11.183Z,9.08
2023-03-12T22:44:51.668Z,8.96
2023-03-12T22:47:32.178Z,8.80
2023-03-12T22:50:26.261Z,8.73
2023-03-12T22:53:06.803Z,8.98
2023-03-12T22:55:34.001Z,8.62
2023-03-12T22:58:01.113Z,8.92
2023-03-12T23:00:28.025Z,9.03
2023-03-12T23:02:55.015Z,8.88
2023-03-12T23:05:22.058Z,8.34
2023-03-12T23:07:49.408Z,8.64
2023-03-12T23:10:16.543Z,8.79
2023-03-12T23:12:43.598Z,8.79
2023-03-12T23:15:11.292Z,8.69
2023-03-12T23:17:38.447Z,7.93
2023-03-12T23:20:06.824Z,8.37
2023-03-12T23:22:54.165Z,8.87
2023-03-12T23:25:34.814Z,8.31
2023-03-12T23:28:01.942Z,8.45
2023-03-12T23:30:28.935Z,8.52
2023-03-12T23:32:55.928Z,8.55
2023-03-12T23:35:23.642Z,8.33
2023-03-12T23:37:50.898Z,8.62
2023-03-12T23:40:17.993Z,8.57
2023-03-12T23:43:05.177Z,8.18
2023-03-12T23:46:07.380Z,8.45
2023-03-12T23:49:01.193Z,8.36
2023-03-12T23:51:41.916Z,8.19
2023-03-12T23:54:08.956Z,7.99
2023-03-12T23:56:41.124Z,8.35
2023-03-12T23:59:09.897Z,8.41
